Time;durP1;ratioP1;P1;durP2;ratioP2;P2;SDS_P1;SDS_P2;PMS_P1;PMS_P2;Temp;Humidity;BMP_temperature;BMP_pressure;BME280_temperature;BME280_humidity;BME280_pressure;Samples;Min_cycle;Max_cycle;Signal;HPM_P1;HPM_P2
2022/05/07 00:01:03;;;;;;;14.47;11.83;;;12.30;99.90;;;12.13;68.74;101702.94;4896611;29;20458;-70
2022/05/07 00:03:32;;;;;;;19.17;12.27;;;12.30;99.90;;;12.12;68.77;101702.09;4896865;29;20415;-70
2022/05/07 00:06:01;;;;;;;18.20;12.37;;;12.30;99.90;;;12.17;68.51;101701.50;4900363;29;20458;-70
2022/05/07 00:08:30;;;;;;;13.50;10.20;;;12.30;99.90;;;12.10;68.68;101703.31;4900497;29;20458;-71
2022/05/07 00:10:59;;;;;;;16.03;11.83;;;12.20;99.90;;;12.12;68.85;101703.94;4900779;29;20942;-70
2022/05/07 00:13:30;;;;;;;13.00;11.17;;;12.20;99.90;;;12.16;68.74;101705.25;4900560;29;20517;-69
2022/05/07 00:18:45;;;;;;;12.40;8.53;;;12.30;99.90;;;12.28;68.29;101692.84;4900604;29;20393;-70
2022/05/07 00:21:13;;;;;;;18.13;10.70;;;12.40;99.90;;;12.35;67.59;101696.47;4900559;29;20423;-69
2022/05/07 00:23:42;;;;;;;12.87;10.40;;;12.40;99.90;;;12.42;67.04;101701.97;4900485;29;20414;-70
2022/05/07 00:26:11;;;;;;;18.97;15.20;;;12.50;99.90;;;12.58;65.08;101691.69;4900687;29;20557;-71
2022/05/07 00:28:41;;;;;;;13.80;10.10;;;12.60;99.50;;;12.69;64.43;101694.88;4900320;29;20426;-71
2022/05/07 00:31:10;;;;;;;9.33;6.90;;;12.70;97.20;;;12.82;63.12;101695.00;4914912;29;20434;-71
2022/05/07 00:33:39;;;;;;;10.87;7.17;;;12.80;92.40;;;12.96;62.29;101688.63;4899942;29;21026;-69
2022/05/07 00:36:07;;;;;;;8.73;6.33;;;12.90;88.10;;;13.07;61.57;101694.31;4914496;29;20500;-70
2022/05/07 00:38:36;;;;;;;12.70;8.67;;;13.00;82.20;;;13.15;60.93;101689.81;4900068;29;20426;-70
2022/05/07 00:41:05;;;;;;;11.40;9.07;;;13.10;76.70;;;13.22;60.52;101691.50;4899067;29;20435;-70
2022/05/07 00:43:37;;;;;;;11.30;7.27;;;13.20;69.40;;;13.32;59.60;101696.59;4899720;29;20422;-70
2022/05/07 00:46:08;;;;;;;9.80;7.57;;;13.30;63.10;;;13.39;59.38;101689.31;4899626;29;20466;-70
2022/05/07 00:48:37;;;;;;;11.20;8.10;;;13.30;57.60;;;13.44;59.24;101686.84;4914238;29;20445;-71
2022/05/07 00:53:53;;;;;;;5.60;4.90;;;13.50;52.00;;;13.36;59.02;101679.69;4914179;29;20501;-71
2022/05/07 00:56:23;;;;;;;6.63;5.13;;;13.40;49.50;;;13.31;59.13;101681.34;4899218;29;20477;-71
2022/05/07 00:58:53;;;;;;;8.43;5.40;;;13.40;49.20;;;13.39;58.73;101673.00;4897915;29;20428;-70
2022/05/07 01:01:24;;;;;;;8.40;5.17;;;13.40;47.80;;;13.43;58.72;101677.84;4898105;29;20417;-72
2022/05/07 01:03:53;;;;;;;6.20;4.50;;;13.40;48.10;;;13.44;58.78;101675.97;4913937;29;20800;-70
2022/05/07 01:06:23;;;;;;;8.10;6.90;;;13.40;48.10;;;13.72;57.21;101673.16;4913669;29;20458;-71
2022/05/07 01:08:52;;;;;;;6.03;4.97;;;13.50;42.80;;;13.66;57.58;101673.94;4914036;29;20537;-70
2022/05/07 01:11:22;;;;;;;6.03;5.50;;;13.60;40.80;;;13.70;57.30;101669.81;4913871;29;20442;-70
2022/05/07 01:13:56;;;;;;;8.80;6.23;;;13.60;39.10;;;13.64;57.34;101659.72;4897894;29;20478;-70
2022/05/07 01:16:29;;;;;;;9.97;6.30;;;13.60;38.50;;;13.76;56.87;101669.81;4912029;29;20561;-71
2022/05/07 01:18:58;;;;;;;6.17;5.37;;;13.70;37.00;;;13.91;56.54;101665.03;4913692;29;21010;-69
2022/05/07 01:21:28;;;;;;;5.73;5.10;;;13.80;35.20;;;14.07;56.02;101661.13;4898160;29;20869;-70
2022/05/07 01:23:59;;;;;;;7.83;5.97;;;14.00;33.20;;;13.95;56.08;101660.03;4913121;29;20447;-69
2022/05/07 01:26:33;;;;;;;12.77;10.13;;;13.90;31.70;;;13.96;56.37;101658.13;4897522;29;20799;-70
2022/05/07 01:29:04;;;;;;;5.83;4.87;;;13.90;31.60;;;13.95;56.39;101662.75;4913233;29;20569;-70
2022/05/07 01:31:37;;;;;;;7.30;5.23;;;13.90;31.30;;;14.00;56.13;101662.13;4897418;29;20509;-70
2022/05/07 01:34:06;;;;;;;5.63;4.20;;;13.90;30.80;;;14.02;56.08;101660.88;4913080;29;20482;-70
2022/05/07 01:36:39;;;;;;;3.73;3.27;;;14.00;30.30;;;14.01;55.87;101661.94;4913352;29;20445;-71
2022/05/07 01:39:14;;;;;;;6.83;5.43;;;14.00;29.30;;;14.25;55.76;101658.63;4897664;29;20446;-71
2022/05/07 01:41:43;;;;;;;6.20;5.50;;;14.10;29.40;;;14.34;55.13;101665.53;4913069;29;20454;-70
2022/05/07 01:44:12;;;;;;;6.07;4.90;;;14.20;28.20;;;14.24;55.35;101665.09;4898503;29;20907;-70
2022/05/07 01:49:32;;;;;;;5.73;4.17;;;14.20;27.90;;;14.11;55.99;101656.94;4913712;29;20438;-71
2022/05/07 01:52:04;;;;;;;5.93;3.87;;;14.10;28.30;;;14.07;56.50;101652.09;4913123;29;20451;-71
2022/05/07 01:54:34;;;;;;;4.77;4.00;;;14.10;29.20;;;14.03;56.31;101673.47;4913057;29;20922;-70
2022/05/07 01:57:04;;;;;;;4.80;4.27;;;14.00;29.40;;;13.96;56.45;101664.44;4912612;29;20442;-70
2022/05/07 01:59:34;;;;;;;4.10;3.70;;;14.00;29.80;;;14.10;56.06;101657.13;4912880;29;20478;-71
2022/05/07 02:02:07;;;;;;;5.50;4.03;;;14.00;29.10;;;14.19;55.58;101656.72;4913112;29;20442;-71
2022/05/07 02:04:36;;;;;;;6.57;5.17;;;14.10;27.90;;;14.12;55.72;101658.59;4915077;29;20490;-72
2022/05/07 02:07:09;;;;;;;16.27;5.43;;;14.10;27.50;;;14.13;55.63;101654.00;4914695;29;20443;-70
2022/05/07 02:09:38;;;;;;;6.90;4.40;;;14.10;27.80;;;14.16;55.70;101661.75;4915376;29;20454;-71
2022/05/07 02:12:08;;;;;;;12.23;4.70;;;14.10;27.30;;;14.12;55.59;101652.31;4899511;29;20588;-72
2022/05/07 02:14:41;;;;;;;12.30;5.53;;;14.10;27.20;;;14.07;55.71;101658.38;4915518;29;20864;-70
2022/05/07 02:17:10;;;;;;;3.77;3.40;;;14.00;27.20;;;14.08;55.58;101646.47;4913859;29;20439;-70
2022/05/07 02:19:39;;;;;;;5.40;3.70;;;14.00;26.60;;;14.14;55.35;101650.22;4899415;29;20441;-70
2022/05/07 02:22:09;;;;;;;4.00;3.60;;;14.10;26.60;;;14.35;54.67;101641.88;4899559;29;20860;-70
2022/05/07 02:24:38;;;;;;;4.73;4.00;;;14.20;25.50;;;14.28;55.03;101639.13;4913410;29;20466;-71
2022/05/07 02:27:07;;;;;;;4.20;3.83;;;14.20;25.30;;;14.23;54.86;101638.91;4912856;29;20454;-70
2022/05/07 02:29:36;;;;;;;4.00;3.67;;;14.20;25.30;;;14.15;55.00;101635.56;4897649;29;20442;-70
2022/05/07 02:32:06;;;;;;;4.70;3.60;;;14.10;24.70;;;14.11;55.57;101639.75;4898308;29;20828;-69
2022/05/07 02:34:43;;;;;;;4.70;3.50;;;14.00;25.50;;;14.15;55.30;101639.13;4913094;29;20489;-71
2022/05/07 02:37:25;;;;;;;5.80;4.20;;;14.10;25.20;;;14.19;55.42;101642.25;4913695;29;20451;-70
2022/05/07 02:39:56;;;;;;;6.70;4.93;;;14.10;25.60;;;14.19;55.50;101634.94;4898194;29;20839;-71
2022/05/07 02:42:36;;;;;;;6.70;4.20;;;14.20;25.80;;;14.29;55.13;101643.53;4897089;29;20455;-71
2022/05/07 02:45:14;;;;;;;6.23;5.00;;;14.20;25.40;;;14.30;55.26;101649.81;4912816;29;20512;-70
2022/05/07 02:47:45;;;;;;;6.57;4.57;;;14.30;25.50;;;14.29;55.53;101639.97;4896554;29;20474;-71
2022/05/07 02:50:16;;;;;;;5.03;4.40;;;14.30;25.60;;;14.38;55.18;101651.56;4896770;29;20434;-71
2022/05/07 02:52:46;;;;;;;9.47;6.93;;;14.30;24.90;;;14.40;54.95;101649.44;4897499;29;20511;-70
2022/05/07 02:55:15;;;;;;;7.67;5.43;;;14.40;24.40;;;14.27;55.22;101651.09;4897536;29;20465;-70
2022/05/07 02:57:52;;;;;;;4.50;4.00;;;14.30;25.10;;;14.25;55.43;101652.34;4895882;29;20534;-70
2022/05/07 03:00:23;;;;;;;4.67;3.70;;;14.30;24.70;;;14.18;55.49;101656.94;4896099;29;20465;-70
2022/05/07 03:02:52;;;;;;;4.30;3.80;;;14.20;24.70;;;14.09;56.20;101652.72;4911957;29;20452;-70
2022/05/07 03:05:25;;;;;;;4.50;3.70;;;14.10;25.80;;;13.99;56.08;101658.56;4895838;29;20552;-69
2022/05/07 03:07:59;;;;;;;4.10;3.63;;;14.00;25.80;;;13.93;56.53;101657.53;4911446;29;20421;-70
2022/05/07 03:10:29;;;;;;;7.93;4.33;;;13.90;27.00;;;13.80;56.44;101660.19;4911598;29;20445;-71
2022/05/07 03:12:58;;;;;;;10.67;6.10;;;13.90;26.80;;;13.72;56.96;101656.81;4911631;29;20799;-70
2022/05/07 03:15:27;;;;;;;7.20;4.60;;;13.80;27.50;;;13.66;57.13;101658.47;4897136;29;20484;-71
2022/05/07 03:17:56;;;;;;;6.10;4.60;;;13.80;27.80;;;13.55;57.60;101660.97;4896998;29;20918;-70
2022/05/07 03:20:25;;;;;;;7.03;5.50;;;13.70;28.90;;;13.46;57.86;101663.84;4895906;29;20413;-70
2022/05/07 03:22:55;;;;;;;6.20;4.73;;;13.60;29.50;;;13.40;58.03;101666.53;4911622;29;20460;-70
2022/05/07 03:25:24;;;;;;;5.50;4.53;;;13.50;30.20;;;13.28;58.35;101665.41;4897366;29;20832;-71
2022/05/07 03:27:53;;;;;;;4.87;3.90;;;13.40;31.60;;;13.20;58.92;101661.00;4896885;29;20447;-70
2022/05/07 03:30:22;;;;;;;4.47;4.07;;;13.30;33.40;;;13.15;59.16;101654.47;4911298;29;20461;-71
2022/05/07 03:33:05;;;;;;;6.67;4.60;;;13.30;36.00;;;13.05;59.38;101661.09;4895353;29;20436;-70
2022/05/07 03:35:37;;;;;;;5.30;3.23;;;13.20;37.50;;;12.97;60.04;101663.94;4911420;29;20521;-70
2022/05/07 03:38:07;;;;;;;5.23;4.13;;;13.10;40.20;;;12.97;60.28;101668.56;4895097;29;20450;-70
2022/05/07 03:40:45;;;;;;;5.00;4.50;;;13.00;43.30;;;13.03;60.42;101663.16;4894962;29;20497;-69
2022/05/07 03:43:16;;;;;;;3.70;3.40;;;13.00;46.20;;;13.06;59.86;101657.34;4911131;29;20442;-70
2022/05/07 03:45:45;;;;;;;6.37;4.67;;;13.10;45.00;;;13.24;59.29;101667.72;4911486;29;20477;-72
2022/05/07 03:48:15;;;;;;;4.57;3.80;;;13.20;43.80;;;13.22;59.36;101656.19;4912321;29;20447;-72
2022/05/07 03:50:49;;;;;;;4.23;3.50;;;13.20;43.20;;;13.33;59.05;101652.06;4912221;29;20636;-71
2022/05/07 03:53:30;;;;;;;9.20;4.47;;;13.20;43.70;;;13.41;59.14;101652.72;4897870;29;20575;-73
2022/05/07 03:56:22;;;;;;;5.37;4.83;;;13.30;44.00;;;14.10;57.10;101647.06;4897442;29;20489;-72
2022/05/07 03:58:51;;;;;;;4.53;3.80;;;13.60;40.70;;;14.23;56.37;101652.53;4912499;29;20449;-71
2022/05/07 04:01:39;;;;;;;5.50;5.00;;;13.80;36.50;;;14.07;56.48;101644.78;4895771;29;20442;-70
2022/05/07 04:04:09;;;;;;;4.83;4.30;;;13.90;33.50;;;14.10;56.64;101649.81;4911345;29;20449;-71
2022/05/07 04:06:39;;;;;;;5.47;4.47;;;13.90;33.20;;;14.15;56.36;101651.91;4911214;29;20421;-71
2022/05/07 04:09:09;;;;;;;13.50;4.50;;;13.90;32.00;;;14.14;56.36;101651.06;4911467;29;20457;-70
2022/05/07 04:11:38;;;;;;;7.47;4.13;;;14.00;31.50;;;14.13;56.49;101654.00;4911600;29;20948;-70
2022/05/07 04:14:08;;;;;;;5.70;4.30;;;14.00;31.10;;;14.17;56.58;101655.25;4896652;29;20557;-71
2022/05/07 04:16:36;;;;;;;6.53;4.13;;;14.00;31.10;;;14.30;55.94;101650.66;4910968;29;20431;-70
2022/05/07 04:19:15;;;;;;;4.93;3.97;;;14.10;30.20;;;14.39;56.09;101650.47;4911420;29;20417;-71
2022/05/07 04:21:45;;;;;;;5.83;5.23;;;14.10;30.00;;;14.80;54.96;101648.38;4895397;29;20449;-71
2022/05/07 04:24:31;;;;;;;5.43;4.30;;;14.30;29.30;;;15.18;54.22;101654.81;4910939;29;20553;-69
2022/05/07 04:27:00;;;;;;;6.00;3.60;;;14.50;28.70;;;15.97;52.06;101653.66;4895175;29;20482;-71
2022/05/07 04:29:29;;;;;;;4.77;4.13;;;14.90;26.60;;;16.22;51.32;101650.94;4896255;29;20699;-70
2022/05/07 04:32:07;;;;;;;6.43;4.10;;;15.20;23.10;;;17.03;49.80;101659.13;4895508;29;20848;-70
2022/05/07 04:34:36;;;;;;;4.87;4.13;;;15.50;21.40;;;17.96;47.66;101655.00;4910921;29;20510;-70
2022/05/07 04:37:07;;;;;;;4.30;3.90;;;16.20;17.80;;;18.36;46.50;101660.75;4899629;29;20438;-71
2022/05/07 04:39:37;;;;;;;4.20;3.77;;;16.50;15.90;;;18.28;46.76;101668.47;4900958;29;20529;-71
2022/05/07 04:42:10;;;;;;;4.73;4.33;;;16.80;13.90;;;17.52;48.23;101658.13;4916744;29;20860;-71
2022/05/07 04:44:59;;;;;;;6.53;4.50;;;16.50;14.00;;;16.77;49.73;101660.19;4901736;29;20470;-71
2022/05/07 04:47:48;;;;;;;4.87;4.20;;;16.00;14.70;;;16.50;50.34;101654.09;4902170;29;20521;-70
2022/05/07 04:50:25;;;;;;;4.20;3.40;;;15.90;15.20;;;16.88;49.52;101654.84;4917260;29;20470;-70
2022/05/07 04:53:05;;;;;;;5.77;4.03;;;15.90;15.60;;;18.36;47.03;101654.41;4920216;29;20498;-71
2022/05/07 04:55:35;;;;;;;5.00;3.30;;;16.40;15.00;;;19.48;44.21;101653.25;4920193;29;20482;-70
2022/05/07 04:58:04;;;;;;;5.03;4.17;;;17.10;12.00;;;19.82;43.83;101662.47;4917931;29;20982;-71
2022/05/07 05:00:36;;;;;;;4.73;4.27;;;17.60;10.30;;;19.70;43.03;101669.94;4899657;29;20446;-70
2022/05/07 05:03:14;;;;;;;5.67;4.87;;;17.80;7.10;;;19.37;44.04;101665.06;4914494;29;20438;-72
2022/05/07 05:05:52;;;;;;;6.10;3.80;;;18.00;6.70;;;19.86;44.40;101677.38;4898638;29;20979;-71
2022/05/07 05:08:41;;;;;;;4.70;4.13;;;18.10;7.50;;;21.73;40.58;101671.34;4906105;29;20470;-70
2022/05/07 05:11:13;;;;;;;5.80;4.20;;;18.60;5.20;;;22.53;38.35;101674.09;4914684;29;20473;-71
2022/05/07 05:13:42;;;;;;;4.70;3.90;;;19.10;3.00;;;22.72;38.57;101658.84;4899020;29;20546;-70
2022/05/07 05:16:11;;;;;;;5.07;3.80;;;19.00;2.90;;;22.52;39.02;101664.16;4899776;29;20483;-70
2022/05/07 05:18:49;;;;;;;7.10;4.07;;;19.00;2.80;;;22.60;39.13;101660.94;4916730;29;20409;-70
2022/05/07 05:21:21;;;;;;;4.37;3.53;;;19.50;2.40;;;21.36;40.29;101666.44;4916403;29;20436;-71
2022/05/07 05:23:59;;;;;;;4.90;4.00;;;19.20;1.50;;;19.85;43.88;101671.03;4898586;29;20416;-70
2022/05/07 05:26:31;;;;;;;4.27;3.73;;;19.10;2.40;;;18.67;46.34;101665.97;4915593;29;20481;-73
2022/05/07 05:29:01;;;;;;;8.83;5.13;;;18.40;3.80;;;18.14;46.64;101668.69;4913945;29;20962;-71
2022/05/07 05:31:30;;;;;;;5.73;3.70;;;18.10;4.30;;;17.79;47.78;101676.75;4898103;29;21039;-70
2022/05/07 05:34:05;;;;;;;5.70;4.00;;;17.80;4.80;;;17.38;48.10;101684.78;4913035;29;20428;-73
2022/05/07 05:36:50;;;;;;;5.17;4.67;;;17.30;5.00;;;17.23;49.29;101684.34;4897938;29;20464;-69
2022/05/07 05:39:21;;;;;;;8.10;4.50;;;17.00;7.10;;;17.18;49.23;101681.47;4897929;29;20542;-71
2022/05/07 05:41:54;;;;;;;4.73;3.43;;;16.90;7.50;;;17.23;49.78;101684.34;4913953;29;20417;-72
2022/05/07 05:44:26;;;;;;;5.10;4.60;;;16.90;8.60;;;17.07;49.91;101683.03;4913159;29;20464;-70
2022/05/07 05:46:55;;;;;;;4.30;3.90;;;16.70;8.90;;;16.78;50.07;101681.84;4978945;23;20458;-69
2022/05/07 05:49:26;;;;;;;4.60;3.77;;;16.60;8.70;;;16.84;49.94;101678.22;4959682;28;20477;-71
2022/05/07 05:51:58;;;;;;;4.57;4.00;;;16.50;9.10;;;16.94;50.46;101684.00;4989977;28;20446;-73
2022/05/07 05:54:27;;;;;;;4.60;4.17;;;16.60;10.10;;;17.28;49.88;101684.50;4989342;28;20481;-71
2022/05/07 05:57:01;;;;;;;5.00;4.27;;;16.80;9.90;;;17.30;49.94;101685.09;4973116;28;20437;-72
2022/05/07 05:59:30;;;;;;;5.03;4.00;;;16.90;10.20;;;17.40;49.88;101674.47;4989537;28;20482;-72
2022/05/07 06:02:00;;;;;;;4.30;3.77;;;17.00;10.00;;;17.53;49.26;101685.25;4972887;28;20506;-72
2022/05/07 06:04:35;;;;;;;3.97;3.50;;;17.10;9.50;;;17.79;48.42;101681.38;4989625;28;20441;-72
2022/05/07 06:07:11;;;;;;;6.40;3.67;;;17.30;8.90;;;17.95;48.25;101682.66;4989114;28;21056;-71
2022/05/07 06:09:43;;;;;;;4.20;3.80;;;17.50;8.50;;;18.11;48.30;101681.97;4989140;28;20434;-71
2022/05/07 06:12:19;;;;;;;8.73;4.77;;;17.60;8.20;;;18.23;47.66;101683.72;4989135;28;20982;-71
2022/05/07 06:14:48;;;;;;;5.63;4.80;;;17.80;7.50;;;18.41;47.63;101688.28;4989308;28;20862;-72
2022/05/07 06:17:17;;;;;;;4.30;3.67;;;18.00;7.50;;;18.38;46.77;101686.00;4973942;28;20522;-72
2022/05/07 06:19:49;;;;;;;5.83;4.03;;;18.00;6.30;;;18.51;46.61;101680.31;4989180;28;20998;-71
2022/05/07 06:22:19;;;;;;;4.07;3.40;;;18.10;5.80;;;18.75;46.33;101680.38;4973222;28;20943;-72
2022/05/07 06:28:11;;;;;;;5.20;3.07;;;18.50;4.40;;;18.97;44.86;101684.22;4975999;28;20944;-72
2022/05/07 06:30:41;;;;;;;5.20;3.30;;;18.60;2.60;;;19.14;44.41;101679.66;4975625;28;20438;-72
2022/05/07 06:33:13;;;;;;;4.43;3.30;;;18.70;2.20;;;19.50;43.94;101679.41;4975230;28;20420;-72
2022/05/07 06:35:56;;;;;;;6.53;3.37;;;18.90;2.00;;;19.57;43.13;101683.91;4990221;28;20484;-72
2022/05/07 06:38:33;;;;;;;3.53;3.10;;;19.10;1.00;;;19.95;42.75;101681.38;4988461;28;20529;-71
2022/05/07 06:41:03;;;;;;;3.60;3.10;;;19.30;1.00;;;20.24;42.38;101685.78;4973885;28;20872;-71
2022/05/07 06:43:35;;;;;;;3.40;2.70;;;19.60;1.00;;;20.75;42.13;101681.22;4988763;28;20481;-71
2022/05/07 06:46:05;;;;;;;5.07;3.50;;;20.00;1.00;;;20.73;41.87;101675.13;4974066;28;20971;-71
2022/05/07 06:48:41;;;;;;;4.90;3.47;;;20.00;1.00;;;20.72;42.42;101687.22;4973783;28;20437;-71
2022/05/07 06:51:17;;;;;;;5.60;5.00;;;20.10;1.00;;;20.78;42.24;101680.69;4988457;28;20466;-71
2022/05/07 06:53:46;;;;;;;3.83;3.07;;;20.20;1.00;;;20.92;41.44;101682.03;4973806;28;20389;-71
2022/05/07 06:56:15;;;;;;;4.17;3.77;;;20.40;1.00;;;20.61;40.36;101680.72;4973426;28;21080;-71
2022/05/07 06:58:45;;;;;;;4.83;3.50;;;20.40;1.00;;;20.46;40.85;101688.69;4973329;28;20454;-71
2022/05/07 07:01:17;;;;;;;6.00;3.30;;;20.30;1.00;;;20.48;40.61;101682.97;4973466;28;20409;-70
2022/05/07 07:03:46;;;;;;;4.83;3.33;;;20.10;1.00;;;20.47;41.27;101687.63;4973453;28;20461;-72
2022/05/07 07:06:15;;;;;;;4.93;3.67;;;20.00;1.00;;;20.48;41.39;101677.47;4973124;28;20441;-70
2022/05/07 07:08:44;;;;;;;5.57;3.20;;;20.00;1.00;;;20.63;41.18;101677.69;4973082;28;20423;-72
2022/05/07 07:11:12;;;;;;;5.27;3.10;;;20.00;1.00;;;20.55;40.87;101681.72;4972961;28;20415;-70
2022/05/07 07:13:41;;;;;;;3.90;3.10;;;20.00;1.00;;;20.49;40.67;101687.34;4973036;28;20405;-70
2022/05/07 07:16:11;;;;;;;5.43;3.17;;;19.80;1.00;;;20.72;40.37;101676.22;4972686;28;20445;-71
2022/05/07 07:18:42;;;;;;;4.60;3.90;;;20.10;1.00;;;20.92;39.89;101682.03;4973493;28;20450;-70
2022/05/07 07:21:12;;;;;;;5.00;3.70;;;20.40;1.00;;;20.95;39.94;101681.53;4973032;28;20409;-70
2022/05/07 07:23:41;;;;;;;4.63;3.03;;;20.50;1.00;;;20.92;40.28;101681.19;4972922;28;20484;-72
2022/05/07 07:26:10;;;;;;;8.10;3.93;;;20.40;1.00;;;21.16;40.07;101682.69;4972974;28;20473;-73
2022/05/07 07:28:39;;;;;;;3.83;3.50;;;20.60;1.00;;;21.41;39.77;101677.53;4972596;28;20693;-71
2022/05/07 07:31:11;;;;;;;4.27;3.87;;;20.70;1.00;;;21.25;40.31;101681.19;4972815;28;20452;-70
2022/05/07 07:33:41;;;;;;;4.53;3.33;;;20.70;1.00;;;21.53;39.68;101688.44;4973008;28;20427;-73
2022/05/07 07:36:12;;;;;;;4.10;3.70;;;20.90;1.00;;;21.48;40.25;101685.63;4972616;28;20467;-72
2022/05/07 07:38:41;;;;;;;6.23;2.80;;;20.80;1.00;;;21.18;39.57;101680.53;4973139;28;20661;-70
2022/05/07 07:41:10;;;;;;;6.20;3.83;;;20.80;1.00;;;21.14;40.11;101688.47;4973231;28;20943;-71
2022/05/07 07:43:40;;;;;;;4.23;3.40;;;20.80;1.00;;;21.01;40.11;101686.00;4972806;28;20422;-71
2022/05/07 07:48:57;;;;;;;5.17;3.80;;;20.70;1.00;;;21.12;39.32;101693.34;4973681;28;20430;-71
2022/05/07 07:51:26;;;;;;;4.97;3.50;;;20.80;1.00;;;21.02;39.87;101695.09;4972532;28;20413;-72
2022/05/07 07:53:55;;;;;;;4.20;3.80;;;20.80;1.00;;;21.33;38.40;101697.25;4973046;28;20997;-71
2022/05/07 07:56:23;;;;;;;10.07;3.57;;;21.00;1.00;;;21.36;38.37;101684.88;4972146;28;20479;-72
2022/05/07 07:58:52;;;;;;;5.97;3.07;;;21.00;1.00;;;20.94;39.46;101693.63;4987757;28;20449;-69
2022/05/07 08:01:21;;;;;;;3.73;3.40;;;20.90;1.00;;;21.60;38.98;101689.06;4972671;28;20441;-70
2022/05/07 08:03:50;;;;;;;3.30;3.00;;;21.10;1.00;;;22.24;37.43;101689.28;4987879;28;20471;-70
2022/05/07 08:06:22;;;;;;;4.10;3.43;;;21.70;1.00;;;22.24;37.38;101689.28;4972505;28;20508;-70
2022/05/07 08:11:46;;;;;;;8.20;4.00;;;21.70;1.00;;;21.82;38.14;101698.16;4972343;28;20405;-71
2022/05/07 08:14:15;;;;;;;4.23;2.80;;;21.60;1.00;;;21.87;38.38;101695.47;4972262;28;20786;-71
2022/05/07 08:16:45;;;;;;;4.90;3.63;;;21.60;1.00;;;22.04;37.75;101696.25;4972134;28;20532;-72
2022/05/07 08:19:16;;;;;;;4.83;3.90;;;21.60;1.00;;;21.51;37.75;101691.44;4972869;28;20431;-70
2022/05/07 08:21:47;;;;;;;8.00;3.67;;;21.40;1.00;;;21.22;38.08;101693.53;4972125;28;20434;-72
2022/05/07 08:24:17;;;;;;;5.90;4.53;;;21.10;1.00;;;21.46;38.55;101696.03;4972395;28;20402;-70
2022/05/07 08:26:45;;;;;;;4.70;3.77;;;21.10;1.00;;;21.70;38.71;101694.69;4974966;28;20525;-71
2022/05/07 08:29:14;;;;;;;4.13;3.37;;;21.20;1.00;;;21.73;38.50;101690.63;4976161;28;20445;-72
2022/05/07 08:31:43;;;;;;;5.47;3.37;;;21.20;1.00;;;21.90;38.33;101694.13;4977169;28;20526;-73
2022/05/07 08:34:12;;;;;;;6.03;3.80;;;21.40;1.00;;;22.19;37.07;101691.97;4976798;28;20514;-72
2022/05/07 08:36:42;;;;;;;5.00;3.80;;;21.70;1.00;;;22.31;36.88;101687.97;4976138;28;20532;-73
2022/05/07 08:39:12;;;;;;;6.33;4.17;;;21.90;1.00;;;22.64;36.50;101689.66;4976610;28;20433;-70
2022/05/07 08:41:41;;;;;;;6.67;4.23;;;22.10;1.00;;;23.00;35.17;101687.19;4976968;28;20423;-71
2022/05/07 08:44:10;;;;;;;5.70;4.40;;;22.40;1.00;;;23.17;35.38;101679.56;4978083;28;20507;-71
2022/05/07 08:46:42;;;;;;;8.37;4.50;;;22.70;1.00;;;22.89;35.28;101676.09;4977641;28;20465;-72
2022/05/07 08:49:13;;;;;;;4.53;3.93;;;22.50;1.00;;;23.00;35.33;101676.97;4978012;28;21004;-72
2022/05/07 08:51:43;;;;;;;6.50;4.97;;;22.70;1.00;;;22.57;34.79;101683.50;4978377;28;20432;-71
2022/05/07 08:54:14;;;;;;;8.43;4.80;;;22.50;1.00;;;22.60;35.55;101690.44;4977814;28;20482;-72
2022/05/07 08:56:43;;;;;;;8.93;5.10;;;22.50;1.00;;;22.94;35.33;101686.34;4976175;28;20468;-71
2022/05/07 08:59:13;;;;;;;6.10;4.47;;;22.50;1.00;;;23.00;35.07;101684.41;4976253;28;20860;-72
2022/05/07 09:01:42;;;;;;;8.27;4.70;;;22.70;1.00;;;22.82;35.39;101682.91;4975386;28;20435;-72
2022/05/07 09:04:12;;;;;;;8.70;4.63;;;22.50;1.00;;;22.21;35.33;101692.56;4976254;28;20433;-72
2022/05/07 09:06:41;;;;;;;7.23;4.03;;;22.20;1.00;;;21.90;36.56;101686.69;4975284;28;20468;-70
2022/05/07 09:09:10;;;;;;;9.03;5.40;;;21.80;1.00;;;22.28;35.42;101684.91;4975546;28;20966;-70
2022/05/07 09:11:44;;;;;;;9.87;5.30;;;21.90;1.00;;;22.48;35.44;101680.41;4975874;28;21008;-70
2022/05/07 09:14:14;;;;;;;7.03;4.77;;;22.10;1.00;;;22.80;35.20;101685.94;4975928;28;20450;-71
2022/05/07 09:16:48;;;;;;;9.60;5.47;;;22.40;1.00;;;23.05;35.33;101698.25;4975404;28;20462;-70
2022/05/07 09:19:23;;;;;;;9.37;4.97;;;22.50;1.00;;;22.91;35.50;101689.59;4976202;28;20933;-72
2022/05/07 09:21:54;;;;;;;8.90;5.87;;;22.50;1.00;;;23.02;35.33;101685.00;4975413;28;20410;-72
2022/05/07 09:24:23;;;;;;;5.80;5.03;;;22.60;1.00;;;22.50;36.03;101689.28;4975499;28;20480;-72
2022/05/07 09:26:58;;;;;;;11.20;5.77;;;22.40;1.00;;;22.02;36.34;101681.91;4974929;28;20448;-72
2022/05/07 09:29:30;;;;;;;12.27;5.40;;;22.10;1.00;;;22.08;36.43;101680.84;4975792;28;20779;-72
2022/05/07 09:32:09;;;;;;;7.90;4.20;;;22.00;1.00;;;22.70;36.00;101687.78;4977173;28;20923;-72
2022/05/07 09:37:39;;;;;;;5.00;4.17;;;22.40;1.00;;;23.03;36.11;101686.66;4976539;28;20433;-72
2022/05/07 09:40:11;;;;;;;5.33;4.17;;;22.50;1.00;;;23.29;35.41;101669.97;4977594;28;20398;-72
2022/05/07 09:42:44;;;;;;;5.83;4.70;;;22.80;1.00;;;23.53;35.50;101675.91;4976799;28;20932;-71
2022/05/07 09:45:14;;;;;;;6.40;4.40;;;23.10;1.00;;;23.34;35.31;101671.94;4974732;28;20425;-71
2022/05/07 09:47:44;;;;;;;9.67;6.77;;;23.20;1.00;;;23.01;36.73;101667.59;4975085;28;20398;-71
2022/05/07 09:50:24;;;;;;;7.13;4.70;;;22.80;1.00;;;23.48;36.37;101666.81;4974630;28;20417;-71
2022/05/07 09:58:29;;;;;;;4.97;3.60;;;23.80;1.00;;;25.19;33.50;101666.16;4974498;28;20453;-72
2022/05/07 10:01:31;;;;;;;5.70;3.40;;;24.40;1.00;;;25.19;33.43;101668.09;4974505;28;20419;-71
2022/05/07 10:04:30;;;;;;;5.10;3.40;;;24.50;1.00;;;24.54;34.41;101656.00;4954846;28;20439;-71
2022/05/07 10:07:23;;;;;;;6.30;4.20;;;24.10;1.00;;;24.45;33.86;101661.25;4974057;28;20454;-70
2022/05/07 10:10:15;;;;;;;5.20;3.97;;;24.20;1.00;;;23.98;34.82;101652.31;4974566;28;20522;-72
2022/05/07 10:12:46;;;;;;;5.30;3.83;;;23.80;1.00;;;23.70;34.89;101659.13;4974014;28;20409;-70
2022/05/07 10:15:24;;;;;;;5.10;3.53;;;23.70;1.00;;;23.67;34.63;101652.22;4973936;28;20425;-71
2022/05/07 10:18:02;;;;;;;6.43;4.03;;;23.40;1.00;;;24.06;34.00;101654.56;4973729;28;20470;-71
2022/05/07 10:20:40;;;;;;;6.33;4.50;;;23.60;1.00;;;24.62;33.58;101639.66;4974241;28;20401;-71
2022/05/07 10:23:10;;;;;;;7.07;4.17;;;23.90;1.00;;;24.98;33.62;101646.00;4973685;28;20460;-72
2022/05/07 10:25:40;;;;;;;6.03;4.17;;;24.10;1.00;;;24.91;33.13;101641.88;4974029;28;20484;-71
2022/05/07 10:28:12;;;;;;;3.43;2.77;;;24.30;1.00;;;25.53;32.59;101644.16;4973889;28;20911;-70
2022/05/07 10:30:51;;;;;;;5.50;3.60;;;24.70;1.00;;;25.12;33.10;101642.66;4973871;28;20437;-71
2022/05/07 10:33:21;;;;;;;7.00;4.60;;;24.70;1.00;;;25.17;32.91;101643.47;4973234;28;20949;-71
2022/05/07 10:35:54;;;;;;;5.30;4.80;;;24.80;1.00;;;24.47;33.95;101650.72;4973990;28;20459;-71
2022/05/07 10:38:36;;;;;;;5.90;4.30;;;24.50;1.00;;;24.17;34.90;101653.47;4973067;28;20462;-71
2022/05/07 10:41:08;;;;;;;6.60;3.93;;;24.10;1.00;;;23.92;35.16;101647.84;4973931;28;20394;-70
2022/05/07 10:43:39;;;;;;;5.83;4.40;;;23.80;1.00;;;23.95;35.40;101641.81;4973345;28;20894;-70
2022/05/07 10:46:14;;;;;;;7.43;4.63;;;23.60;1.00;;;24.00;35.19;101639.88;4973635;28;20437;-71
2022/05/07 10:48:45;;;;;;;7.33;5.07;;;23.70;1.00;;;23.16;35.63;101642.84;4973369;28;20401;-70
2022/05/07 10:51:28;;;;;;;5.70;4.17;;;23.20;1.00;;;22.74;36.63;101659.41;4973709;28;20934;-71
2022/05/07 10:54:00;;;;;;;6.40;4.23;;;22.80;1.00;;;22.83;36.25;101644.03;4973643;28;20934;-70
2022/05/07 10:56:33;;;;;;;6.17;4.97;;;22.60;1.00;;;23.32;35.74;101646.53;4973274;28;20425;-70
2022/05/07 10:59:03;;;;;;;6.07;4.33;;;22.90;1.00;;;23.25;35.45;101656.97;4973179;28;20984;-70
2022/05/07 11:01:34;;;;;;;5.53;4.13;;;23.00;1.00;;;23.17;35.76;101650.03;4973680;28;20409;-71